Airfield :
LOGIN :

Register | Disclaimer

   EN    FR    IT 

 










Legend :    VFR   Marginal VFR   IFR   Intensive IFR   Very Intensive IFR
Visi :
Ceiling :
>= 8 km
>= 3000ft
5 to 8 km
1000 to 3000 ft
1500m to 5 km
500 to 1000 ft
800 to 1500m
200 to 500 ft
< 800m
< 200 ft
Symbols :   Thunderstorms  Fog  Heavy snow  Heavy precipitations  Wind > 20 kt
SIGMETs :     Misc.  Thunderstorms  Icing  Turbulence  Mountain Waves  Volcanic Ashes






- Airport Elevation : 162 ft
- IATA code : BOD


LFBD - Bordeaux / Merignac

CURRENT METAR :
  • 070330Z AUTO 05008KT 0800 0500 R23/0500D R05/1100U R29/0700D FG VV/// 01/01 Q1017 TEMPO 0500 FG

EXPIRED METARs :
  • 070300Z AUTO 03008KT 1100 0650 R23/0650D R05/1200D R29/P2300 -DZ BCFG VV/// 02/01 Q1017 TEMPO 0500 FG
  • 070230Z AUTO 04007KT 1700 1000 R23/1700U R05/1400D R29/P2300 BR OVC002 02/02 Q1017 NOSIG
  • 070200Z AUTO 04008KT 5000 BR OVC003 02/01 Q1017 TEMPO 1500 MIFG
  • 070130Z AUTO 04008KT 8000 SCT005 OVC076 03/01 Q1017 TEMPO 1500 MIFG BKN004
  • 070100Z AUTO 03007KT CAVOK 04/02 Q1017 TEMPO 1500 MIFG BKN004
  • 070030Z AUTO 04008KT CAVOK 04/02 Q1017 TEMPO 1500 MIFG BKN004

TAF AMD TAF LFBD
Valid from the 07 at 02:00 until the 08 at 06:00 UTC


070235Z 0702/0806 06005KT 9999 BKN045 TX05/0715Z TN00/0806Z
TEMPO 0702/0709 1500 MIFG
PROB30
TEMPO 0702/0708 0500 FG VV///
TEMPO 0721/0806 1500 MIFG
ATIS : +33 5 57 92 81 04



MET'MAP, your aeronautical weather chart ! - Copyright ORBIFLY December 2007 - Disclaimer

ORBIFLY MET'MAP TEAM :

Programming & Development : Alexandra Zaïnal
Original concept : Baudouin d'Aumeries
Technical & hardware support : Manuel Goepfert
Assistance : Marc-Olivier Méhu




SOURCES & CREDITS :

   NOAA